Terminal Aerodrome Forecast
Issued by NWS

Home | Current Version | Previous Version | Text Only | Print | Product List | Glossary On
Versions: 1 2 3 4 5 6 7 8 9 10 11 12
000
FTUS46 KEKA 291700
TAFUKI
TAF
KUKI 291735Z 2918/3018 00000KT P6SM SKC
     FM292000 15006KT P6SM SCT060
     FM300000 30008KT P6SM SCT060
     FM300300 VRB03KT P6SM SKC=

USA.gov is the U.S. government's official web portal to all federal, state and local government web resources and services.